createdAt,value
2017-08-21T00:00:14.525Z,20.29
2017-08-21T00:00:46.819Z,20.23
2017-08-21T00:01:19.110Z,20.35
2017-08-21T00:01:51.422Z,20.25
2017-08-21T00:02:23.722Z,20.25
2017-08-21T00:02:56.031Z,20.4
2017-08-21T00:03:28.312Z,20.22
2017-08-21T00:04:00.598Z,20.22
2017-08-21T00:04:32.893Z,20.26
2017-08-21T00:05:05.185Z,20.26
2017-08-21T00:05:37.477Z,20.27
2017-08-21T00:06:09.770Z,20.37
2017-08-21T00:06:42.077Z,20.2
2017-08-21T00:07:14.355Z,20.25
2017-08-21T00:07:46.646Z,20.3
2017-08-21T00:08:18.942Z,20.26
2017-08-21T00:08:51.251Z,20.23
2017-08-21T00:09:23.540Z,20.25
2017-08-21T00:09:55.841Z,20.32
2017-08-21T00:10:28.147Z,20.29
2017-08-21T00:11:00.438Z,20.3
2017-08-21T00:11:34.665Z,20.26
2017-08-21T00:12:06.962Z,20.29
2017-08-21T00:12:39.260Z,20.22
2017-08-21T00:13:11.527Z,20.12
2017-08-21T00:13:43.789Z,20.32
2017-08-21T00:14:16.160Z,20.25
2017-08-21T00:14:48.421Z,20.26
2017-08-21T00:15:20.775Z,20.19
2017-08-21T00:15:53.051Z,20.2
2017-08-21T00:16:25.313Z,20.18
2017-08-21T00:16:58.338Z,20.16
2017-08-21T00:17:30.617Z,20.29
2017-08-21T00:18:02.883Z,20.18
2017-08-21T00:18:35.155Z,20.2
2017-08-21T00:19:07.416Z,20.12
2017-08-21T00:19:39.679Z,20.12
2017-08-21T00:20:11.943Z,20.3
2017-08-21T00:20:44.242Z,20.16
2017-08-21T00:21:16.500Z,20.18
2017-08-21T00:21:48.816Z,20.18
2017-08-21T00:22:21.095Z,20.12
2017-08-21T00:22:53.362Z,20.22
2017-08-21T00:23:25.673Z,20.19
2017-08-21T00:23:57.968Z,20.19
2017-08-21T00:24:30.261Z,20.18
2017-08-21T00:25:02.575Z,20.16
2017-08-21T00:25:34.869Z,20.19
2017-08-21T00:26:07.177Z,20.11
2017-08-21T00:26:39.476Z,20.18
2017-08-21T00:27:11.764Z,20.2
2017-08-21T00:27:44.078Z,20.15
2017-08-21T00:28:16.373Z,20.2
2017-08-21T00:28:48.679Z,20.2
2017-08-21T00:29:20.986Z,20.19
2017-08-21T00:29:53.299Z,20.15
2017-08-21T00:30:25.588Z,20.2
2017-08-21T00:30:57.879Z,20.2
2017-08-21T00:31:30.186Z,20.05
2017-08-21T00:32:02.484Z,20.22
2017-08-21T00:32:34.784Z,20.11
2017-08-21T00:33:07.064Z,20.08
2017-08-21T00:33:39.363Z,20.18
2017-08-21T00:34:11.634Z,20.19
2017-08-21T00:34:43.939Z,20.12
2017-08-21T00:35:16.250Z,20.18
2017-08-21T00:35:48.541Z,20.18
2017-08-21T00:36:20.833Z,20.18
2017-08-21T00:36:53.111Z,20.18
2017-08-21T00:37:25.395Z,20.11
2017-08-21T00:37:57.675Z,20.12
2017-08-21T00:38:29.971Z,20.18
2017-08-21T00:39:02.256Z,20.19
2017-08-21T00:39:34.552Z,20.11
2017-08-21T00:40:06.856Z,20.16
2017-08-21T00:40:39.151Z,20.16
2017-08-21T00:41:11.458Z,20.2
2017-08-21T00:41:43.766Z,20.07
2017-08-21T00:42:16.086Z,20.15
2017-08-21T00:42:48.381Z,20.11
2017-08-21T00:43:20.713Z,20.07
2017-08-21T00:43:52.977Z,20.08
2017-08-21T00:44:25.236Z,20.11
2017-08-21T00:44:57.497Z,20.05
2017-08-21T00:45:29.778Z,20.05
2017-08-21T00:46:02.027Z,20.08
2017-08-21T00:46:34.333Z,20.08
2017-08-21T00:47:06.615Z,20.12
2017-08-21T00:47:38.870Z,20.1
2017-08-21T00:48:11.126Z,20.08
2017-08-21T00:48:43.415Z,20.11
2017-08-21T00:49:15.687Z,20.05
2017-08-21T00:49:47.950Z,20.04
2017-08-21T00:50:20.313Z,20.02
2017-08-21T00:50:52.586Z,20.08
2017-08-21T00:51:24.899Z,19.98
2017-08-21T00:51:57.171Z,20.07
2017-08-21T00:52:29.479Z,20.07
2017-08-21T00:53:01.814Z,20.05
2017-08-21T00:53:34.093Z,20.02
2017-08-21T00:54:06.349Z,20.04
2017-08-21T00:54:38.648Z,20.07
2017-08-21T00:55:10.890Z,20.05
2017-08-21T00:55:43.156Z,20.02
2017-08-21T00:56:15.419Z,20.01
2017-08-21T00:56:47.735Z,20.02
2017-08-21T00:57:20.001Z,20.04
2017-08-21T00:57:52.248Z,20.04
2017-08-21T00:58:24.526Z,20.04
2017-08-21T00:58:56.792Z,20.08
2017-08-21T00:59:29.162Z,20.04
2017-08-21T01:00:01.437Z,20.04
2017-08-21T01:00:33.706Z,20
2017-08-21T01:01:05.982Z,20.02
2017-08-21T01:01:38.249Z,20.01
2017-08-21T01:02:10.535Z,20.02
2017-08-21T01:02:42.819Z,20
2017-08-21T01:03:15.081Z,19.98
2017-08-21T01:03:47.343Z,20
2017-08-21T01:04:19.634Z,19.98
2017-08-21T01:04:51.989Z,19.98
2017-08-21T01:05:24.225Z,20.05
2017-08-21T01:05:56.498Z,20
2017-08-21T01:06:28.758Z,19.98
2017-08-21T01:07:01.009Z,20.04
2017-08-21T01:07:33.918Z,19.92
2017-08-21T01:08:06.187Z,19.93
2017-08-21T01:08:38.464Z,19.97
2017-08-21T01:09:10.719Z,20.02
2017-08-21T01:09:43.013Z,19.95
2017-08-21T01:10:15.290Z,19.92
2017-08-21T01:10:47.578Z,19.9
2017-08-21T01:11:19.853Z,19.97
2017-08-21T01:11:52.188Z,19.95
2017-08-21T01:12:24.465Z,19.95
2017-08-21T01:12:56.760Z,19.85
2017-08-21T01:13:29.060Z,19.95
2017-08-21T01:14:01.378Z,19.86
2017-08-21T01:14:33.684Z,19.89
2017-08-21T01:15:05.999Z,20
2017-08-21T01:15:38.287Z,19.97
2017-08-21T01:16:10.595Z,19.86
2017-08-21T01:16:42.875Z,20
2017-08-21T01:17:15.162Z,19.95
2017-08-21T01:17:47.463Z,19.89
2017-08-21T01:18:19.766Z,19.92
2017-08-21T01:18:52.084Z,19.86
2017-08-21T01:19:24.390Z,19.9
2017-08-21T01:19:56.678Z,19.87
2017-08-21T01:20:28.975Z,19.89
2017-08-21T01:21:01.286Z,19.92
2017-08-21T01:21:33.591Z,19.95
2017-08-21T01:22:05.882Z,20
2017-08-21T01:22:38.190Z,19.87
2017-08-21T01:23:10.502Z,19.95
2017-08-21T01:23:42.859Z,19.92
2017-08-21T01:24:15.141Z,19.86
2017-08-21T01:24:47.388Z,19.9
2017-08-21T01:25:19.647Z,19.89
2017-08-21T01:25:51.930Z,19.87
2017-08-21T01:26:24.203Z,19.93
2017-08-21T01:26:56.445Z,19.93
2017-08-21T01:27:28.741Z,19.86
2017-08-21T01:28:00.982Z,19.89
2017-08-21T01:28:33.249Z,19.87
2017-08-21T01:29:05.499Z,19.82
2017-08-21T01:29:37.780Z,19.85
2017-08-21T01:30:10.049Z,19.85
2017-08-21T01:30:42.309Z,19.8
2017-08-21T01:31:14.575Z,19.97
2017-08-21T01:31:46.820Z,19.87
2017-08-21T01:32:19.071Z,19.87
2017-08-21T01:32:51.336Z,19.87
2017-08-21T01:33:23.600Z,19.87
2017-08-21T01:33:55.858Z,19.87
2017-08-21T01:34:28.120Z,19.86
2017-08-21T01:35:00.382Z,19.85
2017-08-21T01:35:32.628Z,19.82
2017-08-21T01:36:04.977Z,19.83
2017-08-21T01:36:37.228Z,19.86
2017-08-21T01:37:09.491Z,19.87
2017-08-21T01:37:41.741Z,19.87
2017-08-21T01:38:14.009Z,19.83
2017-08-21T01:38:46.274Z,19.83
2017-08-21T01:39:18.555Z,19.87
2017-08-21T01:39:50.827Z,19.83
2017-08-21T01:40:23.094Z,19.8
2017-08-21T01:40:55.371Z,19.82
2017-08-21T01:41:27.694Z,19.82
2017-08-21T01:41:59.951Z,19.8
2017-08-21T01:42:32.221Z,19.83
2017-08-21T01:43:04.492Z,19.8
2017-08-21T01:43:36.789Z,19.82
2017-08-21T01:44:09.036Z,19.8
2017-08-21T01:44:41.317Z,19.86
2017-08-21T01:45:13.599Z,19.78
2017-08-21T01:45:45.888Z,19.8
2017-08-21T01:46:18.160Z,19.8
2017-08-21T01:46:50.428Z,19.79
2017-08-21T01:47:22.734Z,19.82
2017-08-21T01:47:55.000Z,19.72
2017-08-21T01:48:27.266Z,19.83
2017-08-21T01:48:59.506Z,19.83
2017-08-21T01:49:31.771Z,19.82
2017-08-21T01:50:04.024Z,19.75
2017-08-21T01:50:36.328Z,19.74
2017-08-21T01:51:09.507Z,19.85
2017-08-21T01:51:41.758Z,19.82
2017-08-21T01:52:14.015Z,19.83
2017-08-21T01:52:46.301Z,19.79
2017-08-21T01:53:18.574Z,19.82
2017-08-21T01:53:50.830Z,19.79
2017-08-21T01:54:23.081Z,19.8
2017-08-21T01:54:55.352Z,19.75
2017-08-21T01:55:27.602Z,19.79
2017-08-21T01:55:59.855Z,19.74
2017-08-21T01:56:32.167Z,19.79
2017-08-21T01:57:04.517Z,19.79
2017-08-21T01:57:36.877Z,19.78
2017-08-21T01:58:09.171Z,19.86
2017-08-21T01:58:41.465Z,19.83
2017-08-21T01:59:13.766Z,19.75
2017-08-21T01:59:46.055Z,19.85
2017-08-21T02:00:18.302Z,19.78
2017-08-21T02:00:50.569Z,19.74
2017-08-21T02:01:22.830Z,19.68
2017-08-21T02:01:55.081Z,19.75
2017-08-21T02:02:27.367Z,19.79
2017-08-21T02:02:59.613Z,19.65
2017-08-21T02:03:31.874Z,19.82
2017-08-21T02:04:04.136Z,19.67
2017-08-21T02:04:36.403Z,19.65
2017-08-21T02:05:08.667Z,19.72
2017-08-21T02:05:41.016Z,19.78
2017-08-21T02:06:13.298Z,19.65
2017-08-21T02:06:45.566Z,19.78
2017-08-21T02:07:17.832Z,19.74
2017-08-21T02:07:50.100Z,19.74
2017-08-21T02:08:22.367Z,19.75
2017-08-21T02:08:54.693Z,19.72
2017-08-21T02:09:26.965Z,19.67
2017-08-21T02:09:59.214Z,19.67
2017-08-21T02:10:31.446Z,19.75
2017-08-21T02:11:03.700Z,19.67
2017-08-21T02:11:35.963Z,19.72
2017-08-21T02:12:08.216Z,19.79
2017-08-21T02:12:40.487Z,19.67
2017-08-21T02:13:12.765Z,19.74
2017-08-21T02:13:45.074Z,19.72
2017-08-21T02:14:17.380Z,19.61
2017-08-21T02:14:49.680Z,19.7
2017-08-21T02:15:21.974Z,19.68
2017-08-21T02:15:54.262Z,19.65
2017-08-21T02:16:26.582Z,19.7
2017-08-21T02:16:58.884Z,19.68
2017-08-21T02:17:31.192Z,19.65
2017-08-21T02:18:03.469Z,19.68
2017-08-21T02:18:35.778Z,19.67
2017-08-21T02:19:08.084Z,19.63
2017-08-21T02:19:40.386Z,19.64
2017-08-21T02:20:12.682Z,19.71
2017-08-21T02:20:44.980Z,19.65
2017-08-21T02:21:17.269Z,19.7
2017-08-21T02:21:49.561Z,19.65
2017-08-21T02:22:21.865Z,19.7
2017-08-21T02:22:54.170Z,19.65
2017-08-21T02:23:26.459Z,19.68
2017-08-21T02:23:58.788Z,19.7
2017-08-21T02:24:31.083Z,19.68
2017-08-21T02:25:03.384Z,19.65
2017-08-21T02:25:35.681Z,19.68
2017-08-21T02:26:07.968Z,19.72
2017-08-21T02:26:40.270Z,19.68
2017-08-21T02:27:12.565Z,19.68
2017-08-21T02:27:44.851Z,19.67
2017-08-21T02:28:17.159Z,19.64
2017-08-21T02:28:49.437Z,19.64
2017-08-21T02:29:21.727Z,19.65
2017-08-21T02:29:54.014Z,19.64
2017-08-21T02:30:26.297Z,19.7
2017-08-21T02:30:58.637Z,19.64
2017-08-21T02:31:30.932Z,19.63
2017-08-21T02:32:03.234Z,19.64
2017-08-21T02:32:35.545Z,19.61
2017-08-21T02:33:07.841Z,19.63
2017-08-21T02:33:40.100Z,19.64
2017-08-21T02:34:12.388Z,19.64
2017-08-21T02:34:44.642Z,19.71
2017-08-21T02:35:17.025Z,19.64
2017-08-21T02:35:49.282Z,19.6
2017-08-21T02:36:21.530Z,19.56
2017-08-21T02:36:53.793Z,19.64
2017-08-21T02:37:26.044Z,19.64
2017-08-21T02:37:58.317Z,19.57
2017-08-21T02:38:30.689Z,19.56
2017-08-21T02:39:02.968Z,19.64
2017-08-21T02:39:35.260Z,19.61
2017-08-21T02:40:07.537Z,19.63
2017-08-21T02:40:39.869Z,19.61
2017-08-21T02:41:12.141Z,19.6
2017-08-21T02:41:44.434Z,19.61
2017-08-21T02:42:16.697Z,19.64
2017-08-21T02:42:48.976Z,19.64
2017-08-21T02:43:21.250Z,19.53
2017-08-21T02:43:53.521Z,19.56
2017-08-21T02:44:25.799Z,19.53
2017-08-21T02:44:58.051Z,19.6
2017-08-21T02:45:30.382Z,19.6
2017-08-21T02:46:02.773Z,19.57
2017-08-21T02:46:35.022Z,19.49
2017-08-21T02:47:07.293Z,19.6
2017-08-21T02:47:39.566Z,19.53
2017-08-21T02:48:11.837Z,19.49
2017-08-21T02:48:44.101Z,19.6
2017-08-21T02:49:16.382Z,19.53
2017-08-21T02:49:48.629Z,19.63
2017-08-21T02:50:20.899Z,19.5
2017-08-21T02:50:53.165Z,19.52
2017-08-21T02:51:25.461Z,19.5
2017-08-21T02:51:57.715Z,19.5
2017-08-21T02:52:29.966Z,19.55
2017-08-21T02:53:02.252Z,19.57
2017-08-21T02:53:34.536Z,19.52
2017-08-21T02:54:06.852Z,19.5
2017-08-21T02:54:39.159Z,19.5
2017-08-21T02:55:11.450Z,19.55
2017-08-21T02:55:43.748Z,19.6
2017-08-21T02:56:16.042Z,19.5
2017-08-21T02:56:48.319Z,19.49
2017-08-21T02:57:20.615Z,19.5
2017-08-21T02:57:52.922Z,19.53
2017-08-21T02:58:25.221Z,19.56
2017-08-21T02:58:57.520Z,19.53
2017-08-21T02:59:29.830Z,19.6
2017-08-21T03:00:02.117Z,19.53
2017-08-21T03:00:34.429Z,19.5
2017-08-21T03:01:06.720Z,19.53
2017-08-21T03:01:39.040Z,19.47
2017-08-21T03:02:11.348Z,19.49
2017-08-21T03:02:43.635Z,19.47
2017-08-21T03:03:15.927Z,19.43
2017-08-21T03:03:48.232Z,19.47
2017-08-21T03:04:20.558Z,19.47
2017-08-21T03:04:52.847Z,19.52
2017-08-21T03:05:25.150Z,19.52
2017-08-21T03:05:57.457Z,19.45
2017-08-21T03:06:29.730Z,19.53
2017-08-21T03:07:02.005Z,19.55
2017-08-21T03:07:34.311Z,19.37
2017-08-21T03:08:06.589Z,19.45
2017-08-21T03:08:38.911Z,19.47
2017-08-21T03:09:11.217Z,19.46
2017-08-21T03:09:43.540Z,19.45
2017-08-21T03:10:15.832Z,19.45
2017-08-21T03:10:48.119Z,19.53
2017-08-21T03:11:20.434Z,19.5
2017-08-21T03:11:52.741Z,19.43
2017-08-21T03:12:25.042Z,19.43
2017-08-21T03:12:57.352Z,19.47
2017-08-21T03:13:29.601Z,19.56
2017-08-21T03:14:01.848Z,19.53
2017-08-21T03:14:34.120Z,19.53
2017-08-21T03:15:06.442Z,19.55
2017-08-21T03:15:38.685Z,19.43
2017-08-21T03:16:10.936Z,19.5
2017-08-21T03:16:43.227Z,19.5
2017-08-21T03:17:15.483Z,19.55
2017-08-21T03:17:47.734Z,19.52
2017-08-21T03:18:19.991Z,19.43
2017-08-21T03:18:52.251Z,19.52
2017-08-21T03:19:24.520Z,19.52
2017-08-21T03:19:56.851Z,19.42
2017-08-21T03:20:29.129Z,19.42
2017-08-21T03:21:01.415Z,19.46
2017-08-21T03:21:33.659Z,19.42
2017-08-21T03:22:05.927Z,19.45
2017-08-21T03:22:38.193Z,19.4
2017-08-21T03:23:10.444Z,19.42
2017-08-21T03:23:42.730Z,19.43
2017-08-21T03:24:15.012Z,19.42
2017-08-21T03:24:47.293Z,19.43
2017-08-21T03:25:19.592Z,19.45
2017-08-21T03:25:51.898Z,19.45
2017-08-21T03:26:24.198Z,19.45
2017-08-21T03:26:56.487Z,19.42
2017-08-21T03:27:28.795Z,19.43
2017-08-21T03:28:01.091Z,19.45
2017-08-21T03:28:33.377Z,19.35
2017-08-21T03:29:05.666Z,19.46
2017-08-21T03:29:37.966Z,19.42
2017-08-21T03:30:10.272Z,19.45
2017-08-21T03:30:42.563Z,19.42
2017-08-21T03:31:14.866Z,19.46
2017-08-21T03:31:47.156Z,19.46
2017-08-21T03:32:19.444Z,19.43
2017-08-21T03:32:51.742Z,19.46
2017-08-21T03:33:24.020Z,19.4
2017-08-21T03:33:56.273Z,19.43
2017-08-21T03:34:28.562Z,19.4
2017-08-21T03:35:00.928Z,19.42
2017-08-21T03:35:33.205Z,19.38
2017-08-21T03:36:05.463Z,19.43
2017-08-21T03:36:37.733Z,19.46
2017-08-21T03:37:10.039Z,19.34
2017-08-21T03:37:42.330Z,19.45
2017-08-21T03:38:14.591Z,19.45
2017-08-21T03:38:46.837Z,19.38
2017-08-21T03:39:19.117Z,19.38
2017-08-21T03:39:51.392Z,19.4
2017-08-21T03:40:23.661Z,19.38
2017-08-21T03:40:55.934Z,19.46
2017-08-21T03:41:28.217Z,19.46
2017-08-21T03:42:00.488Z,19.42
2017-08-21T03:42:32.753Z,19.43
2017-08-21T03:43:05.001Z,19.45
2017-08-21T03:43:37.267Z,19.45
2017-08-21T03:44:09.543Z,19.45
2017-08-21T03:44:41.802Z,19.4
2017-08-21T03:45:14.043Z,19.37
2017-08-21T03:45:46.301Z,19.28
2017-08-21T03:46:18.648Z,19.37
2017-08-21T03:46:50.932Z,19.38
2017-08-21T03:47:23.198Z,19.37
2017-08-21T03:47:55.466Z,19.38
2017-08-21T03:48:27.749Z,19.37
2017-08-21T03:49:00.034Z,19.35
2017-08-21T03:49:32.318Z,19.34
2017-08-21T03:50:04.570Z,19.31
2017-08-21T03:50:36.852Z,19.4
2017-08-21T03:51:09.115Z,19.38
2017-08-21T03:51:41.431Z,19.32
2017-08-21T03:52:13.689Z,19.37
2017-08-21T03:52:45.940Z,19.35
2017-08-21T03:53:18.229Z,19.34
2017-08-21T03:53:50.499Z,19.3
2017-08-21T03:54:22.816Z,19.31
2017-08-21T03:54:55.061Z,19.32
2017-08-21T03:55:27.325Z,19.32
2017-08-21T03:55:59.592Z,19.35
2017-08-21T03:56:31.859Z,19.35
2017-08-21T03:57:04.199Z,19.31
2017-08-21T03:57:36.486Z,19.3
2017-08-21T03:58:08.755Z,19.32
2017-08-21T03:58:41.036Z,19.27
2017-08-21T03:59:13.288Z,19.35
2017-08-21T03:59:45.570Z,19.27
2017-08-21T04:00:18.603Z,19.27
2017-08-21T04:00:50.998Z,19.32
2017-08-21T04:01:23.280Z,19.35
2017-08-21T04:01:55.527Z,19.27
2017-08-21T04:02:27.819Z,19.31
2017-08-21T04:03:00.170Z,19.3
2017-08-21T04:03:32.476Z,19.38
2017-08-21T04:04:04.759Z,19.28
2017-08-21T04:04:37.057Z,19.3
2017-08-21T04:05:09.353Z,19.34
2017-08-21T04:05:41.666Z,19.28
2017-08-21T04:06:13.959Z,19.3
2017-08-21T04:06:46.256Z,19.3
2017-08-21T04:07:18.552Z,19.34
2017-08-21T04:07:50.855Z,19.35
2017-08-21T04:08:23.155Z,19.35
2017-08-21T04:08:55.469Z,19.3
2017-08-21T04:09:27.751Z,19.37
2017-08-21T04:10:00.054Z,19.3
2017-08-21T04:10:32.348Z,19.2
2017-08-21T04:11:04.665Z,19.25
2017-08-21T04:11:36.959Z,19.27
2017-08-21T04:12:09.227Z,19.3
2017-08-21T04:12:41.526Z,19.31
2017-08-21T04:13:13.804Z,19.24
2017-08-21T04:13:46.094Z,19.28
2017-08-21T04:14:18.401Z,19.27
2017-08-21T04:14:50.690Z,19.3
2017-08-21T04:15:22.991Z,19.23
2017-08-21T04:15:55.286Z,19.16
2017-08-21T04:16:27.606Z,19.28
2017-08-21T04:16:59.902Z,19.23
2017-08-21T04:17:32.201Z,19.19
2017-08-21T04:18:04.494Z,19.24
2017-08-21T04:18:36.786Z,19.23
2017-08-21T04:19:09.114Z,19.31
2017-08-21T04:19:41.432Z,19.31
2017-08-21T04:20:13.730Z,19.23
2017-08-21T04:20:46.034Z,19.27
2017-08-21T04:21:18.328Z,19.24
2017-08-21T04:21:50.630Z,19.2
2017-08-21T04:22:22.931Z,19.2
2017-08-21T04:22:55.241Z,19.2
2017-08-21T04:23:27.538Z,19.3
2017-08-21T04:23:59.821Z,19.23
2017-08-21T04:24:32.116Z,19.2
2017-08-21T04:25:04.411Z,19.3
2017-08-21T04:25:36.712Z,19.19
2017-08-21T04:26:09.015Z,19.19
2017-08-21T04:26:41.302Z,19.2
2017-08-21T04:27:13.609Z,19.28
2017-08-21T04:27:45.907Z,19.19
2017-08-21T04:28:18.208Z,19.25
2017-08-21T04:28:50.506Z,19.16
2017-08-21T04:29:22.780Z,19.24
2017-08-21T04:29:55.077Z,19.19
2017-08-21T04:30:27.368Z,19.2
2017-08-21T04:30:59.687Z,19.3
2017-08-21T04:31:31.971Z,19.2
2017-08-21T04:32:04.249Z,19.28
2017-08-21T04:32:36.537Z,19.2
2017-08-21T04:33:08.833Z,19.19
2017-08-21T04:33:41.156Z,19.19
2017-08-21T04:34:13.438Z,19.28
2017-08-21T04:34:45.736Z,19.24
2017-08-21T04:35:18.036Z,19.19
2017-08-21T04:35:50.313Z,19.23
2017-08-21T04:36:22.588Z,19.19
2017-08-21T04:36:54.837Z,19.23
2017-08-21T04:37:27.126Z,19.27
2017-08-21T04:37:59.389Z,19.27
2017-08-21T04:38:31.651Z,19.25
2017-08-21T04:39:03.915Z,19.19
2017-08-21T04:39:36.168Z,19.17
2017-08-21T04:40:08.441Z,19.23
2017-08-21T04:40:40.717Z,19.17
2017-08-21T04:41:12.996Z,19.23
2017-08-21T04:41:45.291Z,19.27
2017-08-21T04:42:17.554Z,19.17
2017-08-21T04:42:49.782Z,19.3
2017-08-21T04:43:22.048Z,19.2
2017-08-21T04:43:54.322Z,19.27
2017-08-21T04:44:26.595Z,19.2
2017-08-21T04:44:58.879Z,19.2
2017-08-21T04:45:31.158Z,19.19
2017-08-21T04:46:03.423Z,19.2
2017-08-21T04:46:35.671Z,19.27
2017-08-21T04:47:07.944Z,19.19
2017-08-21T04:47:40.190Z,19.2
2017-08-21T04:48:12.430Z,19.24
2017-08-21T04:48:44.689Z,19.24
2017-08-21T04:49:16.986Z,19.2
2017-08-21T04:49:49.232Z,19.24
2017-08-21T04:50:21.501Z,19.24
2017-08-21T04:50:53.755Z,19.27
2017-08-21T04:51:26.034Z,19.23
2017-08-21T04:51:58.319Z,19.27
2017-08-21T04:52:30.620Z,19.27
2017-08-21T04:53:02.892Z,19.2
2017-08-21T04:53:35.140Z,19.32
2017-08-21T04:54:07.414Z,19.24
2017-08-21T04:54:39.766Z,19.23
2017-08-21T04:55:12.060Z,19.27
2017-08-21T04:55:44.341Z,19.24
2017-08-21T04:56:16.598Z,19.23
2017-08-21T04:56:48.865Z,19.3
2017-08-21T04:57:21.144Z,19.3
2017-08-21T04:57:53.407Z,19.3
2017-08-21T04:58:25.668Z,19.31
2017-08-21T04:58:57.942Z,19.32
2017-08-21T04:59:30.212Z,19.3
2017-08-21T05:00:02.446Z,19.31
2017-08-21T05:00:34.732Z,19.35
2017-08-21T05:01:06.991Z,19.32
2017-08-21T05:01:39.241Z,19.37
2017-08-21T05:02:11.500Z,19.34
2017-08-21T05:02:43.782Z,19.34
2017-08-21T05:03:16.050Z,19.3
2017-08-21T05:03:48.368Z,19.3
2017-08-21T05:04:20.633Z,19.25
2017-08-21T05:04:52.893Z,19.35
2017-08-21T05:05:25.187Z,19.34
2017-08-21T05:05:57.594Z,19.27
2017-08-21T05:06:29.861Z,19.2
2017-08-21T05:07:02.092Z,19.37
2017-08-21T05:07:34.360Z,19.3
2017-08-21T05:08:06.640Z,19.32
2017-08-21T05:08:38.919Z,19.25
2017-08-21T05:09:11.218Z,19.27
2017-08-21T05:09:43.485Z,19.32
2017-08-21T05:10:15.746Z,19.37
2017-08-21T05:10:48.008Z,19.32
2017-08-21T05:11:20.268Z,19.34
2017-08-21T05:11:52.510Z,19.34
2017-08-21T05:12:24.807Z,19.34
2017-08-21T05:12:57.067Z,19.31
2017-08-21T05:13:29.324Z,19.34
2017-08-21T05:14:01.604Z,19.45
2017-08-21T05:14:33.871Z,19.37
2017-08-21T05:15:06.193Z,19.42
2017-08-21T05:15:38.454Z,19.37
2017-08-21T05:16:10.718Z,19.42
2017-08-21T05:16:43.023Z,19.37
2017-08-21T05:17:15.376Z,19.42
2017-08-21T05:17:47.640Z,19.42
2017-08-21T05:18:19.896Z,19.4
2017-08-21T05:18:52.166Z,19.37
2017-08-21T05:19:24.429Z,19.42
2017-08-21T05:19:56.693Z,19.4
2017-08-21T05:20:29.016Z,19.45
2017-08-21T05:21:01.282Z,19.4
2017-08-21T05:21:33.544Z,19.46
2017-08-21T05:22:05.795Z,19.43
2017-08-21T05:22:38.060Z,19.42
2017-08-21T05:23:10.336Z,19.43
2017-08-21T05:23:42.676Z,19.42
2017-08-21T05:24:14.925Z,19.45
2017-08-21T05:24:47.177Z,19.46
2017-08-21T05:25:19.445Z,19.43
2017-08-21T05:25:51.712Z,19.43
2017-08-21T05:26:24.030Z,19.49
2017-08-21T05:26:56.319Z,19.35
2017-08-21T05:27:28.575Z,19.43
2017-08-21T05:28:00.858Z,19.45
2017-08-21T05:28:33.140Z,19.45
2017-08-21T05:29:05.448Z,19.55
2017-08-21T05:29:37.724Z,19.52
2017-08-21T05:30:10.126Z,19.47
2017-08-21T05:30:42.420Z,19.46
2017-08-21T05:31:14.696Z,19.45
2017-08-21T05:31:46.994Z,19.46
2017-08-21T05:32:19.316Z,19.46
2017-08-21T05:32:52.486Z,19.47
2017-08-21T05:33:24.763Z,19.5
2017-08-21T05:33:57.158Z,19.52
2017-08-21T05:34:29.395Z,19.53
2017-08-21T05:35:01.625Z,19.55
2017-08-21T05:35:33.996Z,19.47
2017-08-21T05:36:06.438Z,19.47
2017-08-21T05:36:38.688Z,19.5
2017-08-21T05:37:10.939Z,19.55
2017-08-21T05:37:43.205Z,19.5
2017-08-21T05:38:15.461Z,19.52
2017-08-21T05:38:47.733Z,19.5
2017-08-21T05:39:19.990Z,19.5
2017-08-21T05:39:52.248Z,19.52
2017-08-21T05:40:24.514Z,19.5
2017-08-21T05:40:56.814Z,19.53
2017-08-21T05:41:29.111Z,19.61
2017-08-21T05:42:01.354Z,19.52
2017-08-21T05:42:33.625Z,19.52
2017-08-21T05:43:05.900Z,19.49
2017-08-21T05:43:38.164Z,19.5
2017-08-21T05:44:10.427Z,19.57
2017-08-21T05:44:42.831Z,19.63
2017-08-21T05:45:15.076Z,19.64
2017-08-21T05:45:47.314Z,19.61
2017-08-21T05:46:19.585Z,19.65
2017-08-21T05:46:51.871Z,19.63
2017-08-21T05:47:24.234Z,19.65
2017-08-21T05:47:56.508Z,19.57
2017-08-21T05:48:28.792Z,19.68
2017-08-21T05:49:01.046Z,19.65
2017-08-21T05:49:33.329Z,19.68
2017-08-21T05:50:05.572Z,19.71
2017-08-21T05:50:37.844Z,19.71
2017-08-21T05:51:10.093Z,19.68
2017-08-21T05:51:42.440Z,19.71
2017-08-21T05:52:14.808Z,19.65
2017-08-21T05:52:47.070Z,19.7
2017-08-21T05:53:19.347Z,19.68
2017-08-21T05:53:51.619Z,19.78
2017-08-21T05:54:23.991Z,19.83
2017-08-21T05:54:56.253Z,19.75
2017-08-21T05:55:28.569Z,19.78
2017-08-21T05:56:00.833Z,19.8
2017-08-21T05:56:33.227Z,19.82
2017-08-21T05:57:05.471Z,19.8
2017-08-21T05:57:37.751Z,19.85
2017-08-21T05:58:10.010Z,19.92
2017-08-21T05:58:42.287Z,19.8
2017-08-21T05:59:14.581Z,19.87
2017-08-21T05:59:46.841Z,19.85
2017-08-21T06:00:19.138Z,19.89
2017-08-21T06:00:51.433Z,19.9
2017-08-21T06:01:23.776Z,19.92
2017-08-21T06:01:56.024Z,19.92
2017-08-21T06:02:28.317Z,19.89
2017-08-21T06:03:00.581Z,19.9
2017-08-21T06:03:32.869Z,19.89
2017-08-21T06:04:05.224Z,19.87
2017-08-21T06:04:37.667Z,20.01
2017-08-21T06:05:09.970Z,20
2017-08-21T06:05:42.262Z,20.02
2017-08-21T06:06:14.561Z,20
2017-08-21T06:06:46.865Z,20.02
2017-08-21T06:07:19.184Z,20.02
2017-08-21T06:07:51.475Z,20.01
2017-08-21T06:08:23.795Z,20.05
2017-08-21T06:08:56.090Z,20.08
2017-08-21T06:09:28.385Z,20.15
2017-08-21T06:10:00.690Z,20.12
2017-08-21T06:10:32.997Z,20.12
2017-08-21T06:11:05.310Z,20.25
2017-08-21T06:11:37.600Z,20.18
2017-08-21T06:12:09.899Z,20.15
2017-08-21T06:12:42.213Z,20.15
2017-08-21T06:13:14.499Z,20.12
2017-08-21T06:13:46.897Z,20.22
2017-08-21T06:14:19.191Z,20.19
2017-08-21T06:14:51.479Z,20.15
2017-08-21T06:15:23.781Z,20.25
2017-08-21T06:15:56.088Z,20.27
2017-08-21T06:16:28.382Z,20.25
2017-08-21T06:17:00.712Z,20.23
2017-08-21T06:17:33.011Z,20.22
2017-08-21T06:18:05.346Z,20.32
2017-08-21T06:18:37.637Z,20.38
2017-08-21T06:19:09.937Z,20.35
2017-08-21T06:19:42.237Z,20.37
2017-08-21T06:20:14.539Z,20.35
2017-08-21T06:20:46.837Z,20.41
2017-08-21T06:21:20.213Z,20.41
2017-08-21T06:21:53.148Z,20.41
2017-08-21T06:22:25.475Z,20.38
2017-08-21T06:22:57.771Z,20.42
2017-08-21T06:23:30.095Z,20.44
2017-08-21T06:24:02.402Z,20.42
2017-08-21T06:24:34.694Z,20.49
2017-08-21T06:25:06.996Z,20.56
2017-08-21T06:25:39.302Z,20.51
2017-08-21T06:26:13.650Z,20.58
2017-08-21T06:26:45.937Z,20.56
2017-08-21T06:27:18.220Z,20.56
2017-08-21T06:27:50.529Z,20.58
2017-08-21T06:28:22.820Z,20.61
2017-08-21T06:28:55.115Z,20.63
2017-08-21T06:29:27.395Z,20.58
2017-08-21T06:29:59.699Z,20.67
2017-08-21T06:30:31.985Z,20.74
2017-08-21T06:31:04.288Z,20.68
2017-08-21T06:31:36.589Z,20.68
2017-08-21T06:32:08.870Z,20.71
2017-08-21T06:32:41.149Z,20.67
2017-08-21T06:33:13.427Z,20.71
2017-08-21T06:33:45.699Z,20.75
2017-08-21T06:34:17.972Z,20.76
2017-08-21T06:34:50.234Z,20.81
2017-08-21T06:35:22.495Z,20.85
2017-08-21T06:35:54.759Z,20.86
2017-08-21T06:36:27.622Z,20.85
2017-08-21T06:36:59.870Z,20.82
2017-08-21T06:37:32.135Z,20.85
2017-08-21T06:38:04.418Z,20.91
2017-08-21T06:38:36.686Z,20.93
2017-08-21T06:39:09.032Z,20.96
2017-08-21T06:39:41.299Z,20.9
2017-08-21T06:40:13.648Z,21.01
2017-08-21T06:40:45.917Z,20.98
2017-08-21T06:41:18.210Z,21.01
2017-08-21T06:41:50.565Z,20.97
2017-08-21T06:42:22.826Z,21.01
2017-08-21T06:42:55.053Z,20.98
2017-08-21T06:43:27.359Z,21.01
2017-08-21T06:43:59.647Z,21.03
2017-08-21T06:44:31.949Z,21.04
2017-08-21T06:45:04.248Z,21.09
2017-08-21T06:45:36.540Z,21.08
2017-08-21T06:47:28.172Z,21.11
2017-08-21T06:48:00.463Z,21.09
2017-08-21T06:48:32.755Z,21.12
2017-08-21T06:49:05.068Z,21.09
2017-08-21T06:49:37.365Z,21.19
2017-08-21T06:50:09.650Z,21.21
2017-08-21T06:50:41.928Z,21.18
2017-08-21T06:51:14.229Z,21.16
2017-08-21T06:51:46.227Z,21.21
2017-08-21T06:52:21.202Z,21.19
2017-08-21T06:52:53.505Z,21.19
2017-08-21T06:53:25.806Z,21.3
2017-08-21T06:53:58.102Z,21.23
2017-08-21T06:54:30.418Z,21.3
2017-08-21T06:55:02.679Z,21.31
2017-08-21T06:55:34.927Z,21.28
2017-08-21T06:56:07.332Z,21.34
2017-08-21T06:56:39.608Z,21.37
2017-08-21T06:57:11.937Z,21.34
2017-08-21T06:57:44.218Z,21.41
2017-08-21T06:58:16.678Z,21.41
2017-08-21T06:58:48.959Z,21.38
2017-08-21T06:59:21.245Z,21.49
2017-08-21T06:59:53.532Z,21.49